Etusivu
METAR-TAF:

METAR-TAF

Lentoasemat :

Kinshasa, Kongo

N’Djilin kansainvälinen lentoasema

Leveyspiiri: 04-23S, Pituuspiiri: 015-26E, korkeus merenpinnasta: 309 m

Tämänhetkinen sää

Tämä raportti tehtiin 1 tunti ja 7 minuuttia sitten, kello 18.00 UTC
tyyntä
Lämpötila 24°C
Kosteus 83%
Ilmanpaine 1013 hPa
Näkyvyys: 6000 m

METAR: FZAA 231800Z 00000KT 6000 NSC 24/21 Q1013 NOSIG

Aika: 20:07 (19:07 UTC)

Sääennuste

Tämä raportti tehtiin 2 tuntia ja 7 minuuttia sitten, kello 17.00 UTC
Ennuste voimassa 23. päivästä klo 18 UTC - 24. päivään klo 24 UTC
Tuuli 2 kn lounaasta
Näkyvyys: 4000 m
utua
Tulossa
24. päivästä klo 05 UTC - 24. päivään klo 07 UTC
Näkyvyys: 0800 m
Pilvistä 1400 ft:n korkeudessa
sumua
From 24. päivästä klo 1100 UTC
Tuuli 10 kn luoteesta
Näkyvyys: 6000 m
Hajanaisia pilviä 2000 ft:n korkeudessa

TAF: FZAA 231700Z 2318/2424 23002KT 4000 BR NSC BECMG 2405/2407 0800 FG OVC014 FM241100 32010KT 6000 NSW SCT020

Säähavainnot ja -ennusteet yli 4000 lentoasemalta (METAR- ja TAF-raportit).

Käytössä olevat sääasemat on merkitty karttaan keltaisilla ja punaisilla pisteillä.

Aseta hiiri pisteen päälle nähdäksesi sääaseman nimen.

Klikkaa sitten nähdäksesi säähavainnot ja -ennusteet.

Kartan vaihtaminen: klikkaa mustalla rastilla varustettuja vihreitä pisteitä, niin voit zoomata sisään; viivalla varustettua vihreää pistettä, niin voit zoomata ulos tai vihreitä nuolia, niin pääset viereisille kartoille.


METAR-TAF: